Time;durP1;ratioP1;P1;durP2;ratioP2;P2;SDS_P1;SDS_P2;PMS_P1;PMS_P2;Temp;Humidity;BMP_temperature;BMP_pressure;BME280_temperature;BME280_humidity;BME280_pressure;Samples;Min_cycle;Max_cycle;Signal;HPM_P1;HPM_P2
2021/08/14 00:01:19;;;;;;;16.07;7.10;;;;;;;19.00;67.09;101673.16;5078225;28;20188;-70
2021/08/14 00:03:44;;;;;;;11.63;6.17;;;;;;;19.18;66.64;101679.13;5078616;28;20172;-70
2021/08/14 00:06:11;;;;;;;10.63;6.00;;;;;;;18.94;67.36;101675.88;5078373;28;20173;-69
2021/08/14 00:08:36;;;;;;;13.57;7.07;;;;;;;19.21;66.33;101678.22;5078178;28;20161;-70
2021/08/14 00:11:03;;;;;;;18.73;7.13;;;;;;;19.05;66.91;101677.50;5078718;28;20399;-70
2021/08/14 00:13:29;;;;;;;15.40;6.50;;;;;;;19.02;66.86;101678.41;5077912;28;20211;-69
2021/08/14 00:15:54;;;;;;;11.27;6.20;;;;;;;18.91;67.46;101677.66;5078177;28;20419;-69
2021/08/14 00:18:19;;;;;;;16.10;7.90;;;;;;;19.01;67.15;101677.56;5078081;28;20165;-70
2021/08/14 00:20:45;;;;;;;12.03;6.43;;;;;;;19.00;66.89;101681.09;5078260;28;20177;-70
2021/08/14 00:23:10;;;;;;;14.33;7.03;;;;;;;18.97;67.42;101678.47;5077764;28;20580;-70
2021/08/14 00:25:35;;;;;;;12.13;6.50;;;;;;;19.19;66.55;101675.59;5078595;28;20220;-70
2021/08/14 00:28:01;;;;;;;13.10;6.13;;;;;;;19.11;67.20;101680.09;5078056;28;20256;-69
2021/08/14 00:30:26;;;;;;;12.13;6.43;;;;;;;18.90;67.64;101686.47;5078314;28;20180;-70
2021/08/14 00:32:51;;;;;;;11.47;7.07;;;;;;;19.09;67.04;101685.41;5078585;28;20173;-70
2021/08/14 00:35:17;;;;;;;11.70;6.13;;;;;;;19.00;67.12;101682.88;5076898;28;20208;-70
2021/08/14 00:37:42;;;;;;;13.63;6.80;;;;;;;18.88;67.64;101675.03;5078078;28;20184;-70
2021/08/14 00:40:08;;;;;;;15.33;7.00;;;;;;;18.95;67.08;101682.03;5078383;28;20165;-70
2021/08/14 00:42:35;;;;;;;14.73;6.30;;;;;;;18.94;67.04;101682.91;5077803;28;20204;-70
2021/08/14 00:45:00;;;;;;;16.67;7.33;;;;;;;18.76;67.53;101682.16;5077813;28;20423;-70
2021/08/14 00:47:25;;;;;;;20.60;7.60;;;;;;;18.90;67.52;101681.19;5078364;28;20846;-70
2021/08/14 00:49:52;;;;;;;13.50;7.00;;;;;;;18.96;66.79;101684.66;5078092;28;20173;-68
2021/08/14 00:52:17;;;;;;;20.03;7.00;;;;;;;18.81;67.23;101682.13;5077883;28;20543;-69
2021/08/14 00:54:43;;;;;;;14.17;7.03;;;;;;;18.74;67.04;101685.72;5077920;28;20505;-69
2021/08/14 00:57:08;;;;;;;14.90;6.57;;;;;;;18.69;67.60;101686.63;5077669;28;20176;-69
2021/08/14 00:59:33;;;;;;;12.10;6.83;;;;;;;18.76;66.99;101682.16;5077684;28;20465;-70
2021/08/14 01:02:01;;;;;;;14.87;6.43;;;;;;;18.77;66.28;101673.34;5078130;28;20193;-70
2021/08/14 01:04:28;;;;;;;11.17;5.90;;;;;;;18.89;65.97;101666.22;5077526;28;20169;-71
2021/08/14 01:06:53;;;;;;;11.57;6.17;;;;;;;18.79;66.08;101671.56;5077773;28;20419;-69
2021/08/14 01:09:18;;;;;;;10.73;6.03;;;;;;;18.67;66.76;101669.03;5078226;28;20462;-70
2021/08/14 01:11:44;;;;;;;14.10;6.43;;;;;;;18.64;66.52;101667.28;5077474;28;20436;-70
2021/08/14 01:14:11;;;;;;;9.80;6.30;;;;;;;18.62;66.43;101663.81;5077403;28;20196;-69
2021/08/14 01:16:37;;;;;;;12.37;7.03;;;;;;;18.78;66.04;101664.56;5077406;28;20215;-70
2021/08/14 01:19:04;;;;;;;13.33;6.40;;;;;;;18.62;66.43;101660.31;5077685;28;20393;-70
2021/08/14 01:21:30;;;;;;;12.10;6.40;;;;;;;18.77;65.97;101661.94;5076747;28;20499;-69
2021/08/14 01:23:56;;;;;;;10.10;6.13;;;;;;;18.62;66.10;101660.31;5077383;28;20508;-70
2021/08/14 01:26:22;;;;;;;9.27;5.50;;;;;;;18.61;66.01;101650.63;5076818;28;20419;-68
2021/08/14 01:28:48;;;;;;;9.70;6.30;;;;;;;18.85;65.79;101647.75;5078441;28;20226;-69
2021/08/14 01:31:14;;;;;;;10.77;6.20;;;;;;;18.69;65.95;101652.28;5080878;28;20419;-70
2021/08/14 01:33:42;;;;;;;12.37;6.10;;;;;;;18.65;65.87;101649.72;5080734;28;20201;-70
2021/08/14 01:36:12;;;;;;;12.53;6.30;;;;;;;18.56;66.19;101649.78;5081507;28;20431;-70
2021/08/14 01:38:50;;;;;;;12.60;6.50;;;;;;;18.70;65.74;101642.63;5081091;28;20617;-71
2021/08/14 01:41:17;;;;;;;17.00;6.00;;;;;;;18.78;65.07;101643.41;5080970;28;20406;-69
2021/08/14 01:43:50;;;;;;;13.83;6.73;;;;;;;18.76;65.66;101636.41;5080791;28;20723;-69
2021/08/14 01:46:16;;;;;;;10.70;6.53;;;;;;;18.61;65.70;101633.00;5080824;28;20464;-69
2021/08/14 01:48:41;;;;;;;13.87;6.67;;;;;;;18.60;65.53;101633.03;5081309;28;20407;-69
2021/08/14 01:51:06;;;;;;;11.50;6.10;;;;;;;18.62;65.23;101640.03;5080766;28;20169;-69
2021/08/14 01:53:32;;;;;;;10.00;6.20;;;;;;;18.40;66.01;101639.38;5080668;28;20708;-69
2021/08/14 01:55:57;;;;;;;6.63;5.20;;;;;;;18.56;65.51;101644.50;5081128;28;20169;-68
2021/08/14 01:58:22;;;;;;;7.63;5.60;;;;;;;18.52;65.66;101644.53;5080695;28;20173;-69
2021/08/14 02:00:47;;;;;;;9.57;6.30;;;;;;;18.52;65.50;101641.00;5080558;28;20431;-69
2021/08/14 02:03:13;;;;;;;12.57;6.17;;;;;;;18.52;65.85;101641.00;5080877;28;20161;-70
2021/08/14 02:05:38;;;;;;;12.10;6.57;;;;;;;18.39;65.93;101644.63;5080505;28;20254;-69
2021/08/14 02:08:03;;;;;;;10.30;6.30;;;;;;;18.34;66.32;101636.78;5080442;28;20449;-70
2021/08/14 02:10:29;;;;;;;13.30;6.40;;;;;;;18.48;65.87;101636.66;5080842;28;20244;-70
2021/08/14 02:12:54;;;;;;;10.60;6.03;;;;;;;18.42;65.69;101642.00;5080447;28;20481;-70
2021/08/14 02:15:19;;;;;;;10.10;6.00;;;;;;;18.51;65.25;101639.28;5080066;28;20197;-70
2021/08/14 02:17:44;;;;;;;10.57;6.00;;;;;;;18.40;65.55;101636.72;5080725;28;20265;-69
2021/08/14 02:20:10;;;;;;;11.37;5.90;;;;;;;18.43;65.57;101631.41;5080414;28;20243;-69
2021/08/14 02:22:35;;;;;;;7.83;5.90;;;;;;;18.35;65.87;101633.25;5080048;28;20169;-70
2021/08/14 02:25:01;;;;;;;8.33;6.80;;;;;;;18.32;65.97;101627.97;5080417;28;20157;-70
2021/08/14 02:27:26;;;;;;;10.70;6.40;;;;;;;18.29;66.00;101628.00;5080305;28;20184;-69
2021/08/14 02:29:51;;;;;;;8.67;5.90;;;;;;;18.39;65.31;101619.13;5080106;28;20204;-70
2021/08/14 02:32:17;;;;;;;10.20;6.73;;;;;;;18.14;66.48;101616.72;5080516;28;20169;-69
2021/08/14 02:34:42;;;;;;;12.63;6.07;;;;;;;18.28;65.66;101613.06;5079806;28;20661;-69
2021/08/14 02:37:07;;;;;;;12.10;6.70;;;;;;;18.17;66.06;101611.41;5079712;28;20222;-69
2021/08/14 02:39:32;;;;;;;10.60;7.30;;;;;;;18.45;65.04;101607.63;5079925;28;20169;-69
2021/08/14 02:41:58;;;;;;;10.40;6.10;;;;;;;18.42;64.84;101613.81;5079841;28;20545;-70
2021/08/14 02:44:23;;;;;;;12.30;5.53;;;;;;;18.25;65.55;101613.97;5079550;28;20180;-69
2021/08/14 02:46:48;;;;;;;12.23;7.77;;;;;;;18.58;64.45;101611.03;5080322;28;20169;-70
2021/08/14 02:49:14;;;;;;;9.23;6.30;;;;;;;18.33;65.14;101609.50;5079786;28;20478;-70
2021/08/14 02:51:39;;;;;;;8.77;5.50;;;;;;;18.03;65.64;101599.19;5079574;28;20534;-68
2021/08/14 02:54:04;;;;;;;18.13;5.93;;;;;;;18.31;65.51;101598.06;5079841;28;20284;-69
2021/08/14 02:56:29;;;;;;;11.73;6.53;;;;;;;18.50;64.68;101596.13;5079547;28;20440;-69
2021/08/14 02:58:55;;;;;;;9.60;6.00;;;;;;;18.41;64.97;101598.00;5079639;28;20499;-69
2021/08/14 03:01:20;;;;;;;10.30;6.37;;;;;;;18.23;65.36;101593.75;5079648;28;20184;-70
2021/08/14 03:03:45;;;;;;;8.20;6.10;;;;;;;18.06;66.11;101597.38;5079348;28;20198;-69
2021/08/14 03:06:26;;;;;;;13.47;6.47;;;;;;;18.08;66.10;101592.13;5079317;28;20173;-70
2021/08/14 03:08:52;;;;;;;8.57;5.87;;;;;;;18.14;66.22;101592.06;5079339;28;20179;-70
2021/08/14 03:11:17;;;;;;;10.40;6.40;;;;;;;18.20;65.94;101592.03;5079240;28;20407;-69
2021/08/14 03:13:42;;;;;;;9.70;5.83;;;;;;;18.17;66.02;101597.31;5079330;28;20188;-69
2021/08/14 03:16:08;;;;;;;14.67;6.13;;;;;;;18.00;66.41;101595.69;5079118;28;20432;-71
2021/08/14 03:18:33;;;;;;;14.97;7.17;;;;;;;18.26;65.95;101596.38;5078983;28;20208;-69
2021/08/14 03:20:58;;;;;;;13.30;6.03;;;;;;;18.47;65.18;101590.03;5079497;28;20260;-69
2021/08/14 03:23:24;;;;;;;10.37;6.27;;;;;;;18.58;64.73;101587.25;5078900;28;20523;-70
2021/08/14 03:25:49;;;;;;;11.30;6.30;;;;;;;18.65;64.90;101589.81;5079123;28;20179;-70
2021/08/14 03:28:14;;;;;;;10.27;5.90;;;;;;;18.73;64.02;101588.88;5079469;28;20235;-69
2021/08/14 03:30:39;;;;;;;11.70;6.47;;;;;;;18.96;63.66;101588.66;5079176;28;20183;-69
2021/08/14 03:33:05;;;;;;;9.93;6.30;;;;;;;18.80;64.06;101593.22;5078865;28;20244;-69
2021/08/14 03:35:30;;;;;;;11.07;6.27;;;;;;;18.95;63.69;101600.13;5079067;28;20202;-69
2021/08/14 03:37:55;;;;;;;11.90;6.37;;;;;;;18.86;64.01;101582.56;5078585;28;20165;-69
2021/08/14 03:40:21;;;;;;;8.30;5.73;;;;;;;18.22;65.75;101590.22;5078603;28;20172;-69
2021/08/14 03:42:46;;;;;;;9.77;5.97;;;;;;;18.86;63.96;101585.19;5078354;28;20219;-69
2021/08/14 03:45:12;;;;;;;9.27;6.10;;;;;;;19.00;63.39;101593.00;5078490;28;20616;-69
2021/08/14 03:47:37;;;;;;;9.33;5.83;;;;;;;18.82;63.86;101594.03;5078681;28;20444;-68
2021/08/14 03:50:03;;;;;;;7.97;5.80;;;;;;;18.65;64.31;101595.09;5079003;28;20195;-70
2021/08/14 03:52:29;;;;;;;10.60;6.33;;;;;;;18.77;64.24;101588.81;5077908;28;20192;-70
2021/08/14 03:54:55;;;;;;;9.47;5.80;;;;;;;18.70;64.57;101587.16;5078159;28;20459;-69
2021/08/14 03:57:20;;;;;;;14.80;6.60;;;;;;;18.44;65.29;101590.03;5078656;28;20423;-70
2021/08/14 03:59:45;;;;;;;12.60;6.93;;;;;;;18.79;64.65;101589.66;5078235;28;20566;-70
2021/08/14 04:02:11;;;;;;;13.23;6.30;;;;;;;18.74;64.48;101588.88;5078205;28;20227;-70
2021/08/14 04:04:36;;;;;;;13.00;6.37;;;;;;;18.43;65.33;101591.81;5078574;28;20543;-69
2021/08/14 04:07:01;;;;;;;11.17;6.27;;;;;;;19.00;64.02;101585.94;5078310;28;20169;-71
2021/08/14 04:09:27;;;;;;;17.17;6.90;;;;;;;18.68;64.88;101586.28;5078133;28;20171;-69
2021/08/14 04:11:52;;;;;;;10.63;6.13;;;;;;;18.61;65.29;101592.53;5078764;28;20213;-69
2021/08/14 04:14:18;;;;;;;13.83;6.17;;;;;;;18.61;64.95;101592.53;5078135;28;20310;-70
2021/08/14 04:16:43;;;;;;;11.73;5.90;;;;;;;18.27;66.33;101588.44;5078261;28;20196;-69
2021/08/14 04:19:08;;;;;;;8.67;5.60;;;;;;;18.66;65.23;101585.44;5078649;28;20165;-69
2021/08/14 04:21:34;;;;;;;14.70;6.80;;;;;;;18.38;65.85;101590.97;5078181;28;20210;-70
2021/08/14 04:23:59;;;;;;;13.37;6.67;;;;;;;18.54;65.53;101586.44;5078023;28;20321;-69
2021/08/14 04:26:27;;;;;;;12.33;6.40;;;;;;;18.90;64.53;101588.72;5078849;28;20291;-71
2021/08/14 04:28:52;;;;;;;10.20;6.33;;;;;;;18.72;64.66;101587.13;5078009;28;20314;-69
2021/08/14 04:31:18;;;;;;;16.37;7.87;;;;;;;18.50;65.56;101584.72;5078015;28;20827;-68
2021/08/14 04:33:43;;;;;;;13.27;6.73;;;;;;;18.83;64.61;101580.84;5078465;28;20202;-69
2021/08/14 04:36:08;;;;;;;10.90;6.60;;;;;;;19.01;63.82;101582.41;5078183;28;20188;-69
2021/08/14 04:38:33;;;;;;;12.10;6.00;;;;;;;18.66;64.85;101594.22;5078065;28;20172;-73
2021/08/14 04:40:59;;;;;;;12.53;6.07;;;;;;;18.23;66.02;101592.00;5078637;28;20169;-69
2021/08/14 04:43:24;;;;;;;11.40;6.07;;;;;;;18.42;65.52;101592.69;5078159;28;20196;-70
2021/08/14 04:45:49;;;;;;;12.27;6.07;;;;;;;18.73;65.17;101591.53;5078149;28;20164;-70
2021/08/14 04:48:15;;;;;;;14.37;7.37;;;;;;;18.96;64.08;101586.03;5078442;28;20207;-69
2021/08/14 04:50:40;;;;;;;10.90;6.20;;;;;;;18.76;64.41;101591.50;5077926;28;20165;-70
2021/08/14 04:53:05;;;;;;;14.47;7.50;;;;;;;18.48;65.34;101582.09;5077870;28;20557;-69
2021/08/14 04:55:31;;;;;;;13.77;8.00;;;;;;;19.00;64.07;101585.09;5078342;28;20188;-70
2021/08/14 04:57:56;;;;;;;10.37;6.40;;;;;;;18.90;63.88;101588.72;5078047;28;20177;-69
2021/08/14 05:00:21;;;;;;;11.60;6.50;;;;;;;18.79;64.64;101584.38;5077818;28;20367;-70
2021/08/14 05:02:47;;;;;;;10.90;6.30;;;;;;;19.03;64.02;101592.97;5079131;28;20165;-70
2021/08/14 05:05:12;;;;;;;11.00;6.70;;;;;;;19.11;63.70;101598.16;5081450;28;20489;-69
2021/08/14 05:07:37;;;;;;;10.83;6.90;;;;;;;18.78;64.84;101590.59;5081672;28;20188;-69
2021/08/14 05:10:04;;;;;;;10.93;6.43;;;;;;;18.80;64.65;101588.78;5082233;28;20531;-69
2021/08/14 05:12:29;;;;;;;16.53;7.37;;;;;;;18.82;64.85;101594.94;5081715;28;20504;-69
2021/08/14 05:14:55;;;;;;;8.73;6.50;;;;;;;18.81;64.62;101590.53;5081492;28;20545;-69
2021/08/14 05:17:20;;;;;;;11.43;6.30;;;;;;;18.66;65.12;101590.72;5082007;28;20176;-69
2021/08/14 05:19:45;;;;;;;10.63;6.57;;;;;;;18.68;65.59;101595.06;5081359;28;20180;-69
2021/08/14 05:22:11;;;;;;;13.57;7.53;;;;;;;18.86;64.83;101595.75;5081345;28;20282;-69
2021/08/14 05:24:36;;;;;;;12.77;6.30;;;;;;;18.80;64.95;101593.22;5081033;28;20225;-68
2021/08/14 05:27:01;;;;;;;12.50;6.90;;;;;;;19.03;64.39;101585.03;5081397;28;20177;-70
2021/08/14 05:29:26;;;;;;;11.67;6.73;;;;;;;18.89;64.40;101579.03;5081692;28;20169;-70
2021/08/14 05:31:52;;;;;;;17.50;7.43;;;;;;;18.88;64.59;101587.84;5081166;28;20234;-70
2021/08/14 05:34:17;;;;;;;15.03;7.80;;;;;;;19.15;64.11;101576.97;5081010;28;20201;-71
2021/08/14 05:36:42;;;;;;;13.83;7.63;;;;;;;19.52;62.92;101572.94;5081509;28;20200;-69
2021/08/14 05:39:08;;;;;;;13.93;8.40;;;;;;;19.34;63.60;101577.59;5081025;28;20183;-69
2021/08/14 05:41:38;;;;;;;13.20;7.27;;;;;;;18.96;64.42;101583.38;5081122;28;20668;-69
2021/08/14 05:44:04;;;;;;;11.97;7.60;;;;;;;19.06;64.34;101574.44;5081192;28;20176;-69
2021/08/14 05:46:29;;;;;;;10.30;6.40;;;;;;;19.26;63.67;101581.25;5080817;28;20385;-69
2021/08/14 05:48:54;;;;;;;12.60;6.57;;;;;;;19.52;62.91;101579.13;5080965;28;20187;-70
2021/08/14 05:51:20;;;;;;;11.40;6.17;;;;;;;19.87;61.73;101573.34;5081662;28;20244;-69
2021/08/14 05:53:45;;;;;;;12.63;6.30;;;;;;;19.37;62.78;101581.97;5080782;28;20189;-69
2021/08/14 05:56:10;;;;;;;11.80;6.60;;;;;;;19.51;62.30;101582.66;5080958;28;20551;-69
2021/08/14 05:58:36;;;;;;;10.33;5.67;;;;;;;19.85;61.59;101573.38;5081605;28;20175;-69
2021/08/14 06:01:01;;;;;;;11.90;6.37;;;;;;;19.53;62.27;101578.19;5080048;28;20196;-69
2021/08/14 06:03:32;;;;;;;10.80;5.63;;;;;;;19.65;62.29;101577.16;5080590;28;20164;-70
2021/08/14 06:05:57;;;;;;;12.07;5.90;;;;;;;19.78;61.55;101576.97;5081022;28;20161;-70
2021/08/14 06:08:23;;;;;;;9.60;5.67;;;;;;;19.83;61.64;101581.31;5080724;28;20414;-69
2021/08/14 06:10:48;;;;;;;11.33;5.53;;;;;;;20.03;61.23;101585.44;5080546;28;20180;-69
2021/08/14 06:13:13;;;;;;;11.33;6.13;;;;;;;20.16;60.71;101576.41;5081065;28;20161;-70
2021/08/14 06:15:38;;;;;;;11.37;6.00;;;;;;;20.50;59.60;101575.78;5079613;28;20204;-69
2021/08/14 06:18:04;;;;;;;13.97;9.07;;;;;;;20.32;59.96;101571.72;5080399;28;20169;-70
2021/08/14 06:20:29;;;;;;;14.80;6.00;;;;;;;20.63;59.09;101572.91;5080974;28;20461;-69
2021/08/14 06:22:54;;;;;;;9.97;6.00;;;;;;;20.75;58.15;101564.75;5080237;28;20296;-68
2021/08/14 06:25:20;;;;;;;11.93;5.60;;;;;;;21.43;56.31;101565.09;5080140;28;20203;-69
2021/08/14 06:27:45;;;;;;;9.37;5.57;;;;;;;21.07;57.15;101560.59;5080817;28;20161;-68
2021/08/14 06:30:11;;;;;;;11.67;5.33;;;;;;;21.17;56.87;101564.75;5080037;28;20177;-68
2021/08/14 06:32:36;;;;;;;9.83;6.07;;;;;;;21.26;56.42;101571.66;5079974;28;20183;-69
2021/08/14 06:35:01;;;;;;;10.63;6.20;;;;;;;21.52;55.71;101557.81;5080433;28;20273;-69
2021/08/14 06:37:27;;;;;;;11.23;5.60;;;;;;;21.79;54.51;101565.19;5080136;28;20202;-69
2021/08/14 06:39:52;;;;;;;7.53;5.70;;;;;;;22.26;54.01;101565.78;5079327;28;20187;-69
2021/08/14 06:42:17;;;;;;;6.27;5.23;;;;;;;22.64;52.46;101560.41;5080598;28;20425;-70
2021/08/14 06:44:43;;;;;;;9.77;5.13;;;;;;;22.51;53.06;101550.06;5079971;28;20169;-69
2021/08/14 06:47:08;;;;;;;9.07;5.40;;;;;;;22.91;52.27;101547.22;5079963;28;20169;-68
2021/08/14 06:49:34;;;;;;;12.67;5.20;;;;;;;22.76;51.85;101552.06;5080170;28;20169;-69
2021/08/14 06:51:59;;;;;;;9.90;5.13;;;;;;;22.35;53.28;101548.75;5079887;28;20580;-69
2021/08/14 06:54:24;;;;;;;9.33;5.20;;;;;;;21.97;54.11;101548.81;5079786;28;20201;-68
2021/08/14 06:56:50;;;;;;;6.77;5.47;;;;;;;22.71;52.01;101548.66;5080631;28;20175;-69
2021/08/14 06:59:15;;;;;;;8.63;5.40;;;;;;;22.85;52.01;101541.19;5079842;28;20173;-69
2021/08/14 07:01:40;;;;;;;9.40;5.93;;;;;;;22.68;51.81;101546.09;5078843;28;20185;-69
2021/08/14 07:04:05;;;;;;;10.97;5.03;;;;;;;22.88;51.42;101538.41;5079993;28;20172;-70
2021/08/14 07:06:31;;;;;;;11.20;5.70;;;;;;;22.98;50.75;101536.34;5079588;28;20255;-70
2021/08/14 07:08:56;;;;;;;11.17;5.33;;;;;;;23.93;48.73;101541.47;5079370;28;20184;-69
2021/08/14 07:11:22;;;;;;;8.90;4.87;;;;;;;24.89;45.60;101526.47;5079815;28;20173;-68
2021/08/14 07:13:49;;;;;;;8.00;5.00;;;;;;;26.09;43.71;101527.09;5078913;28;20192;-69
2021/08/14 07:16:15;;;;;;;11.30;5.10;;;;;;;25.99;43.34;101540.84;5079101;28;20411;-69
2021/08/14 07:18:40;;;;;;;10.50;5.40;;;;;;;26.62;41.26;101523.00;5079490;28;20448;-68
2021/08/14 07:21:06;;;;;;;8.37;5.20;;;;;;;26.62;41.76;101528.34;5079042;28;20203;-70
2021/08/14 07:23:31;;;;;;;16.83;5.73;;;;;;;26.35;41.10;101525.97;5078567;28;20228;-71
2021/08/14 07:25:57;;;;;;;8.57;4.83;;;;;;;27.04;40.07;101517.47;5078544;28;20414;-71
2021/08/14 07:28:22;;;;;;;5.83;4.90;;;;;;;26.54;41.27;101521.53;5078455;28;20191;-70
2021/08/14 07:30:48;;;;;;;9.70;5.00;;;;;;;27.23;39.92;101524.66;5078909;28;20175;-69
2021/08/14 07:33:14;;;;;;;8.47;4.97;;;;;;;27.87;37.67;101527.78;5079255;28;20191;-69
2021/08/14 07:35:39;;;;;;;7.50;4.70;;;;;;;26.75;40.18;101521.53;5078590;28;20205;-69
2021/08/14 07:38:04;;;;;;;7.90;5.10;;;;;;;27.54;38.97;101517.81;5078639;28;20415;-69
2021/08/14 07:40:30;;;;;;;10.10;4.87;;;;;;;28.00;37.75;101520.88;5077875;28;20504;-69
2021/08/14 07:42:55;;;;;;;9.20;4.87;;;;;;;29.26;35.35;101514.22;5078487;28;20169;-70
2021/08/14 07:45:21;;;;;;;7.00;4.63;;;;;;;29.42;35.71;101517.75;5078470;28;20209;-69
2021/08/14 07:47:48;;;;;;;8.50;4.83;;;;;;;29.26;35.41;101527.63;5079068;28;20197;-69
2021/08/14 07:50:25;;;;;;;8.67;4.80;;;;;;;29.66;35.05;101522.63;5078588;28;20173;-69
2021/08/14 07:52:51;;;;;;;7.27;5.37;;;;;;;29.78;34.75;101515.66;5078582;28;20414;-69
2021/08/14 07:55:16;;;;;;;8.90;5.20;;;;;;;30.90;32.96;101513.34;5078027;28;20454;-70
2021/08/14 07:57:42;;;;;;;7.33;4.57;;;;;;;29.43;34.66;101513.22;5078067;28;20415;-70
2021/08/14 08:00:10;;;;;;;9.00;5.03;;;;;;;30.45;33.29;101509.91;5078477;28;20236;-71
2021/08/14 08:02:35;;;;;;;7.37;5.07;;;;;;;29.42;34.82;101512.38;5078116;28;20173;-68
2021/08/14 08:05:00;;;;;;;8.70;5.07;;;;;;;31.08;32.34;101500.53;5078173;28;20417;-67
2021/08/14 08:07:26;;;;;;;7.97;5.03;;;;;;;30.08;33.43;101499.56;5078684;28;20233;-69
2021/08/14 08:09:51;;;;;;;7.40;4.50;;;;;;;28.50;36.15;101503.06;5078424;28;20447;-68
2021/08/14 08:12:16;;;;;;;6.20;4.90;;;;;;;29.48;35.58;101503.09;5078295;28;20174;-68
2021/08/14 08:14:42;;;;;;;6.97;5.03;;;;;;;30.35;33.37;101497.00;5078173;28;20240;-68
2021/08/14 08:17:07;;;;;;;9.50;5.47;;;;;;;30.34;33.92;101483.66;5078069;28;20645;-67
2021/08/14 08:19:32;;;;;;;7.87;4.50;;;;;;;31.53;31.55;101490.38;5078013;28;20546;-67
2021/08/14 08:21:57;;;;;;;10.67;5.10;;;;;;;32.11;30.37;101481.97;5078778;28;20173;-67
2021/08/14 08:24:23;;;;;;;8.53;4.73;;;;;;;31.09;31.99;101485.25;5077811;28;20231;-69
2021/08/14 08:26:48;;;;;;;10.90;5.93;;;;;;;30.54;32.57;101495.84;5078243;28;20182;-69
2021/08/14 08:29:13;;;;;;;9.37;5.50;;;;;;;31.35;32.10;101486.22;5078447;28;20207;-68
2021/08/14 08:31:39;;;;;;;9.17;4.93;;;;;;;28.43;36.02;101493.63;5078058;28;20411;-69
2021/08/14 08:34:04;;;;;;;10.23;5.37;;;;;;;28.60;36.31;101497.22;5077783;28;20228;-69
2021/08/14 08:36:29;;;;;;;7.30;4.60;;;;;;;28.47;36.72;101494.31;5078338;28;20169;-69
2021/08/14 08:38:54;;;;;;;7.63;5.27;;;;;;;27.96;37.62;101502.34;5083236;28;20518;-69
2021/08/14 08:41:20;;;;;;;7.80;4.63;;;;;;;28.75;36.41;101504.44;5084555;28;20179;-69
2021/08/14 08:43:45;;;;;;;9.47;5.30;;;;;;;28.80;35.53;101501.53;5084764;28;20165;-69
2021/08/14 08:46:11;;;;;;;8.93;5.20;;;;;;;29.62;34.47;101502.28;5084597;28;20173;-70
2021/08/14 08:48:42;;;;;;;13.00;6.03;;;;;;;30.15;34.00;101490.16;5084581;28;20213;-69
2021/08/14 08:51:08;;;;;;;9.90;5.20;;;;;;;30.45;32.87;101475.78;5084985;28;20403;-69
2021/08/14 08:53:33;;;;;;;8.23;5.17;;;;;;;30.50;33.59;101488.94;5083680;28;20419;-69
2021/08/14 08:55:59;;;;;;;7.90;5.30;;;;;;;29.87;34.22;101483.75;5084499;28;20169;-70
2021/08/14 08:58:25;;;;;;;12.73;5.13;;;;;;;30.18;33.72;101479.19;5085040;28;20169;-69
2021/08/14 09:00:50;;;;;;;7.47;4.83;;;;;;;28.92;35.90;101476.69;5084419;28;20433;-69
2021/08/14 09:03:15;;;;;;;7.83;5.00;;;;;;;30.46;33.39;101458.69;5084261;28;20176;-69
2021/08/14 09:05:51;;;;;;;9.13;5.17;;;;;;;30.13;34.25;101459.78;5085121;28;20542;-70
2021/08/14 09:08:16;;;;;;;7.00;4.77;;;;;;;29.70;34.43;101468.63;5084392;28;20165;-70
2021/08/14 09:10:42;;;;;;;9.43;5.37;;;;;;;27.90;38.23;101469.53;5083828;28;20418;-70
2021/08/14 09:13:19;;;;;;;8.13;6.17;;;;;;;27.18;39.57;101473.13;5084144;28;20569;-70
2021/08/14 09:15:45;;;;;;;8.80;5.00;;;;;;;28.15;37.89;101472.78;5084029;28;20465;-70
2021/08/14 09:18:13;;;;;;;8.70;5.30;;;;;;;26.44;41.71;101476.56;5084306;28;20415;-71
2021/08/14 09:20:50;;;;;;;10.00;5.40;;;;;;;26.38;41.48;101480.38;5084102;28;20225;-70
2021/08/14 09:23:16;;;;;;;10.07;5.80;;;;;;;26.13;41.99;101472.59;5083999;28;20454;-71
2021/08/14 09:25:44;;;;;;;8.67;5.20;;;;;;;26.78;40.92;101473.25;5084174;28;20433;-71
2021/08/14 09:28:11;;;;;;;10.30;5.50;;;;;;;26.77;40.70;101474.16;5084513;28;20399;-68
2021/08/14 09:30:48;;;;;;;9.57;5.47;;;;;;;26.08;42.02;101478.16;5084347;28;20422;-70
2021/08/14 09:33:19;;;;;;;9.03;5.50;;;;;;;25.95;42.92;101485.81;5083755;28;20442;-68
2021/08/14 09:35:45;;;;;;;8.37;5.43;;;;;;;24.98;45.07;101485.25;5083855;28;20473;-70
2021/08/14 09:38:13;;;;;;;13.77;5.60;;;;;;;25.63;44.07;101476.50;5083987;28;20494;-71
2021/08/14 09:40:43;;;;;;;12.73;5.37;;;;;;;26.00;43.77;101474.91;5084147;28;20169;-69
2021/08/14 09:43:09;;;;;;;8.97;6.60;;;;;;;26.33;42.58;101474.38;5083308;28;20398;-70
2021/08/14 09:45:34;;;;;;;10.27;5.10;;;;;;;25.62;44.36;101472.09;5084295;28;20493;-70
2021/08/14 09:48:21;;;;;;;12.60;5.60;;;;;;;25.54;44.39;101470.56;5084547;28;20165;-70
2021/08/14 09:50:47;;;;;;;9.80;6.23;;;;;;;26.25;43.41;101471.19;5079733;28;20725;-69
2021/08/14 09:53:15;;;;;;;9.17;5.37;;;;;;;25.76;44.05;101477.69;5080723;28;20464;-70
2021/08/14 09:55:41;;;;;;;9.03;5.90;;;;;;;25.88;43.33;101463.84;5080741;28;20196;-70
2021/08/14 09:58:09;;;;;;;10.80;5.37;;;;;;;25.90;43.73;101471.78;5080773;28;20407;-70
2021/08/14 10:00:35;;;;;;;12.47;6.00;;;;;;;26.07;43.52;101473.72;5080967;28;20477;-69
2021/08/14 10:03:02;;;;;;;10.90;6.57;;;;;;;26.13;43.19;101467.25;5079707;28;20403;-70
2021/08/14 10:05:30;;;;;;;7.60;5.80;;;;;;;27.04;40.71;101455.06;5080691;28;20176;-69
2021/08/14 10:07:56;;;;;;;14.30;6.60;;;;;;;26.20;42.51;101456.22;5080992;28;20693;-70
2021/08/14 10:10:22;;;;;;;6.97;5.40;;;;;;;26.40;42.38;101457.13;5079869;28;20679;-76
2021/08/14 10:12:47;;;;;;;11.33;5.60;;;;;;;26.51;42.25;101437.94;5080262;28;20568;-73
2021/08/14 10:15:12;;;;;;;10.07;5.77;;;;;;;26.58;41.40;101449.22;5079853;28;20538;-71
2021/08/14 10:17:39;;;;;;;9.90;5.37;;;;;;;26.35;42.71;101449.31;5080300;28;20175;-70
2021/08/14 10:20:05;;;;;;;10.17;5.20;;;;;;;25.75;44.06;101451.03;5080207;28;20168;-70
2021/08/14 10:22:31;;;;;;;13.20;5.67;;;;;;;26.36;43.13;101453.72;5080387;28;20460;-70
2021/08/14 10:24:56;;;;;;;10.03;5.20;;;;;;;25.67;44.41;101448.72;5080173;28;20427;-70
2021/08/14 10:27:22;;;;;;;7.30;5.37;;;;;;;26.46;42.31;101442.63;5080253;28;20168;-70
2021/08/14 10:29:51;;;;;;;9.80;4.97;;;;;;;25.90;43.70;101445.06;5080466;28;20161;-70
2021/08/14 10:32:32;;;;;;;11.50;5.67;;;;;;;26.48;42.42;101438.03;5080117;28;20212;-71
2021/08/14 10:35:19;;;;;;;7.13;5.40;;;;;;;26.95;41.35;101428.75;5079936;28;20474;-72
2021/08/14 10:37:49;;;;;;;9.63;5.30;;;;;;;26.72;41.84;101436.94;5079537;28;20414;-69
2021/08/14 10:40:15;;;;;;;12.70;5.53;;;;;;;27.43;40.78;101430.00;5079766;28;20419;-69
2021/08/14 10:43:00;;;;;;;9.80;5.43;;;;;;;26.22;41.44;101443.66;5079745;28;20564;-71
2021/08/14 10:45:26;;;;;;;9.17;5.63;;;;;;;26.77;40.88;101431.38;5078759;28;20478;-71
2021/08/14 10:47:52;;;;;;;12.27;6.67;;;;;;;26.77;41.03;101431.38;5079887;28;20411;-71
2021/08/14 10:50:32;;;;;;;13.50;8.43;;;;;;;26.76;41.09;101434.13;5079805;28;20172;-69
2021/08/14 10:53:15;;;;;;;8.63;5.17;;;;;;;26.11;42.29;101426.38;5079496;28;20480;-70
2021/08/14 10:55:53;;;;;;;7.40;5.10;;;;;;;25.65;43.36;101418.53;5079619;28;20554;-70
2021/08/14 10:58:22;;;;;;;10.17;4.80;;;;;;;27.02;40.97;101424.84;5079762;28;20418;-75
2021/08/14 11:00:48;;;;;;;10.17;5.40;;;;;;;27.09;40.77;101423.59;5079317;28;20882;-69
2021/08/14 11:03:14;;;;;;;12.63;7.77;;;;;;;27.20;40.31;101417.72;5079249;28;20494;-70
2021/08/14 11:05:43;;;;;;;8.20;5.77;;;;;;;26.85;40.61;101407.78;5079094;28;20450;-67
2021/08/14 11:08:28;;;;;;;7.50;5.10;;;;;;;26.18;41.66;101406.44;5079120;28;20161;-68
2021/08/14 11:10:54;;;;;;;9.43;5.40;;;;;;;26.41;40.88;101408.06;5079179;28;20415;-68
2021/08/14 11:13:31;;;;;;;8.70;5.33;;;;;;;26.48;40.86;101401.50;5079196;28;20419;-68
2021/08/14 11:15:57;;;;;;;10.73;5.50;;;;;;;26.03;42.04;101408.00;5078372;28;20176;-69